KDNS/DNS METAR and TAF weather

Enter ICAO airport designator
Station Type Date Time Source
KDNS METAR 2018/01/21 12:35 UTC NOAA

KDNS 211235Z AUTO 03004KT 5SM BR FEW005 SCT011 OVC021 02/02 A2987 RMK AO2


Station Type Date Time Source
KDNS Decoded METAR 2018/01/21 12:35 UTC NOAA

Denison, IA, United States (KDNS) 41-59N 095-23W
Jan 21, 2018 - 07:35 AM EST / 2018.01.21 1235 UTC
Wind: from the NNE (030 degrees) at 5 MPH (4 KT):0
Visibility: 5 mile(s):0
Sky conditions: overcast
Weather: mist
Temperature: 35 F (2 C)
Windchill: 30 F (-1 C):1
Dew Point: 35 F (2 C)
Relative Humidity: 100%
Pressure (altimeter): 29.87 in. Hg (1011 hPa)
ob: KDNS 211235Z AUTO 03004KT 5SM BR FEW005 SCT011 OVC021 02/02 A2987 RMK AO2
cycle: 12

Station Type Date Time Source
KDNS TAF UTC NOAA

Error!


Example: see airport list